Time;durP1;ratioP1;P1;durP2;ratioP2;P2;SDS_P1;SDS_P2;PMS_P1;PMS_P2;Temp;Humidity;BMP_temperature;BMP_pressure;BME280_temperature;BME280_humidity;BME280_pressure;Samples;Min_cycle;Max_cycle;Signal;HPM_P1;HPM_P2
2023/09/21 08:18:45;;;;;;;4.70;2.90;;;;;;;;;;5054354;28;20044;-82
2023/09/21 08:21:11;;;;;;;4.60;3.60;;;;;;;;;;5055247;28;20056;-82
2023/09/21 08:23:36;;;;;;;4.70;3.45;;;;;;;;;;5073142;28;20035;-83
2023/09/21 08:26:03;;;;;;;6.68;4.00;;;;;;;;;;5073134;28;20440;-82
2023/09/21 08:28:29;;;;;;;5.30;4.43;;;;;;;;;;5073545;28;20086;-82
2023/09/21 08:30:55;;;;;;;7.15;4.68;;;;;;;;;;5073140;28;20112;-82
2023/09/21 08:33:22;;;;;;;5.18;3.80;;;;;;;;;;5074978;28;20127;-82
2023/09/21 08:35:48;;;;;;;6.32;2.90;;;;;;;;;;5077051;28;20032;-83
2023/09/21 08:38:14;;;;;;;5.15;3.05;;;;;;;;;;5077144;28;20521;-82
2023/09/21 08:40:46;;;;;;;6.97;3.95;;;;;;;;;;5076959;28;20055;-83
2023/09/21 08:43:22;;;;;;;6.47;4.07;;;;;;;;;;5076719;28;20017;-82
2023/09/21 08:45:50;;;;;;;5.72;3.65;;;;;;;;;;5076735;28;20032;-82
2023/09/21 08:48:19;;;;;;;6.90;4.10;;;;;;;;;;5076979;28;20056;-82
2023/09/21 08:50:49;;;;;;;5.22;3.38;;;;;;;;;;5076895;28;20383;-82
2023/09/21 08:53:20;;;;;;;3.40;3.13;;;;;;;;;;5076894;28;20029;-82
2023/09/21 08:55:52;;;;;;;3.70;2.67;;;;;;;;;;5076667;28;20387;-85
2023/09/21 08:58:23;;;;;;;4.05;3.40;;;;;;;;;;5076677;28;20016;-83
2023/09/21 09:00:53;;;;;;;5.55;3.47;;;;;;;;;;5076671;28;20035;-83
2023/09/21 09:03:20;;;;;;;4.55;3.22;;;;;;;;;;5076399;28;20031;-84
2023/09/21 09:05:47;;;;;;;7.32;3.80;;;;;;;;;;5076501;28;20043;-84
2023/09/21 09:08:12;;;;;;;4.88;3.05;;;;;;;;;;5076628;28;20021;-84
2023/09/21 09:10:43;;;;;;;6.10;2.92;;;;;;;;;;5076207;28;20035;-91
2023/09/21 09:13:08;;;;;;;3.13;2.60;;;;;;;;;;5076581;28;20020;-90
2023/09/21 09:15:35;;;;;;;4.72;3.10;;;;;;;;;;5078556;28;20103;-86
2023/09/21 09:18:02;;;;;;;4.82;2.80;;;;;;;;;;5079699;28;20037;-84
2023/09/21 09:20:29;;;;;;;5.40;2.70;;;;;;;;;;5078428;28;20051;-88
2023/09/21 09:22:54;;;;;;;4.07;3.60;;;;;;;;;;5077841;28;20023;-93
2023/09/21 09:25:21;;;;;;;3.80;2.70;;;;;;;;;;5076842;28;20025;-84
2023/09/21 09:27:47;;;;;;;5.57;3.42;;;;;;;;;;5076372;28;20020;-86
2023/09/21 09:30:12;;;;;;;4.68;3.10;;;;;;;;;;5078958;28;20021;-85
2023/09/21 09:32:41;;;;;;;3.78;3.15;;;;;;;;;;5078246;28;20090;-89
2023/09/21 09:35:12;;;;;;;3.13;2.58;;;;;;;;;;5076895;28;20017;-85
2023/09/21 09:37:47;;;;;;;3.38;2.97;;;;;;;;;;5057971;28;20097;-83
2023/09/21 09:40:14;;;;;;;4.18;3.10;;;;;;;;;;5076069;28;20052;-83
2023/09/21 09:42:41;;;;;;;4.03;3.00;;;;;;;;;;5076365;28;20028;-82
2023/09/21 09:45:28;;;;;;;4.45;3.42;;;;;;;;;;5075402;28;20025;-81
2023/09/21 09:47:56;;;;;;;2.95;2.63;;;;;;;;;;5075910;28;20029;-82
2023/09/21 09:50:26;;;;;;;4.93;3.30;;;;;;;;;;5075710;28;20032;-81
2023/09/21 09:53:13;;;;;;;3.65;2.80;;;;;;;;;;5076118;28;20024;-81
2023/09/21 09:55:43;;;;;;;5.70;3.85;;;;;;;;;;5076148;28;20024;-82
2023/09/21 09:58:09;;;;;;;4.90;3.40;;;;;;;;;;5076033;28;20028;-81
2023/09/21 10:00:36;;;;;;;4.93;3.33;;;;;;;;;;5075480;28;20028;-79
2023/09/21 10:03:04;;;;;;;3.50;3.20;;;;;;;;;;5075731;28;20032;-79
2023/09/21 10:05:30;;;;;;;3.80;3.40;;;;;;;;;;5075713;28;20036;-85
2023/09/21 10:08:00;;;;;;;3.40;3.00;;;;;;;;;;5075384;28;20032;-84
2023/09/21 10:10:32;;;;;;;4.15;3.40;;;;;;;;;;5075433;28;20060;-80
2023/09/21 10:12:58;;;;;;;3.65;2.90;;;;;;;;;;5075203;28;20082;-79
2023/09/21 10:15:24;;;;;;;3.72;3.13;;;;;;;;;;5075037;28;20025;-80
2023/09/21 10:17:54;;;;;;;5.05;3.20;;;;;;;;;;5075102;28;20564;-78
2023/09/21 10:20:27;;;;;;;5.28;3.60;;;;;;;;;;5075149;28;20029;-79
2023/09/21 10:22:58;;;;;;;4.93;3.17;;;;;;;;;;5058226;28;20048;-80
2023/09/21 10:25:43;;;;;;;5.60;3.20;;;;;;;;;;5074628;28;20467;-80
2023/09/21 10:28:27;;;;;;;5.82;3.70;;;;;;;;;;5075116;28;20067;-81
2023/09/21 10:31:18;;;;;;;4.53;3.85;;;;;;;;;;5075120;28;20056;-85
2023/09/21 10:34:08;;;;;;;5.18;3.88;;;;;;;;;;5074680;28;20025;-82
2023/09/21 10:36:38;;;;;;;5.15;3.50;;;;;;;;;;5062151;28;20079;-84
2023/09/21 10:39:06;;;;;;;5.35;3.40;;;;;;;;;;5074613;28;20025;-79
2023/09/21 10:41:33;;;;;;;3.88;2.90;;;;;;;;;;5074668;28;20063;-80
2023/09/21 10:44:02;;;;;;;6.50;3.42;;;;;;;;;;5074505;28;20024;-82
2023/09/21 10:46:30;;;;;;;;;;;;;;;;;;5074720;28;20082;-81
2023/09/21 10:49:05;;;;;;;4.30;3.45;;;;;;;;;;5074443;28;19935;-86
2023/09/21 10:51:31;;;;;;;4.72;3.38;;;;;;;;;;5074424;28;20038;-84
2023/09/21 10:53:59;;;;;;;4.28;2.85;;;;;;;;;;5056538;28;20048;-85
2023/09/21 10:56:28;;;;;;;4.43;2.58;;;;;;;;;;5055398;28;20458;-84
2023/09/21 10:58:53;;;;;;;4.80;2.83;;;;;;;;;;5074215;28;20074;-84
2023/09/21 11:01:19;;;;;;;4.53;3.22;;;;;;;;;;5074319;28;20032;-83
2023/09/21 11:03:48;;;;;;;3.85;2.67;;;;;;;;;;5074225;28;20024;-82
2023/09/21 11:06:17;;;;;;;4.97;3.35;;;;;;;;;;5074296;28;20486;-82
2023/09/21 11:08:46;;;;;;;4.28;3.50;;;;;;;;;;5074205;28;20379;-82
2023/09/21 11:11:12;;;;;;;;;;;;;;;;;;5074577;28;20081;-84
2023/09/21 11:13:39;;;;;;;3.33;2.83;;;;;;;;;;5074184;28;19916;-82
2023/09/21 11:16:05;;;;;;;3.65;2.97;;;;;;;;;;5074203;28;20045;-82
2023/09/21 11:18:32;;;;;;;5.00;2.95;;;;;;;;;;5073802;28;20064;-82
2023/09/21 11:20:58;;;;;;;5.68;3.10;;;;;;;;;;5074168;28;20463;-82
2023/09/21 11:23:24;;;;;;;3.80;3.00;;;;;;;;;;5074073;28;20514;-82
2023/09/21 11:25:50;;;;;;;3.30;2.53;;;;;;;;;;5073730;28;20150;-83
2023/09/21 11:28:24;;;;;;;7.68;5.03;;;;;;;;;;5073536;28;20025;-82
2023/09/21 11:30:54;;;;;;;6.50;4.47;;;;;;;;;;5073815;28;20029;-83
2023/09/21 11:33:20;;;;;;;4.03;2.75;;;;;;;;;;5074153;28;21379;-87
2023/09/21 11:35:46;;;;;;;3.65;2.33;;;;;;;;;;5073722;28;20036;-88
2023/09/21 11:38:12;;;;;;;2.80;2.20;;;;;;;;;;5074189;28;20021;-88
2023/09/21 11:40:38;;;;;;;3.47;2.40;;;;;;;;;;5055400;28;20348;-89
2023/09/21 11:43:04;;;;;;;2.95;2.65;;;;;;;;;;5073450;28;20024;-87
2023/09/21 16:04:27;;;;;;;5.05;3.60;;;;;;;;;;5033690;28;20049;-89
2023/09/21 16:06:53;;;;;;;6.05;3.83;;;;;;;;;;5052711;28;20501;-89
2023/09/21 16:09:18;;;;;;;7.07;4.00;;;;;;;;;;5054104;28;20016;-91
2023/09/21 16:11:44;;;;;;;7.53;3.78;;;;;;;;;;5052572;28;20539;-83
2023/09/21 16:14:09;;;;;;;9.20;3.88;;;;;;;;;;5053918;28;20043;-92
2023/09/21 16:16:35;;;;;;;8.00;3.40;;;;;;;;;;5054526;28;20024;-92
2023/09/21 16:19:00;;;;;;;5.47;3.35;;;;;;;;;;5054834;28;20029;-93
2023/09/21 16:21:26;;;;;;;5.82;3.83;;;;;;;;;;5054108;28;20075;-88
2023/09/21 16:23:52;;;;;;;4.45;4.00;;;;;;;;;;5052824;28;20441;-90
2023/09/21 16:26:18;;;;;;;7.50;3.78;;;;;;;;;;5054270;28;20041;-92
2023/09/21 16:28:50;;;;;;;7.90;3.65;;;;;;;;;;5054011;28;20029;-96
2023/09/21 16:31:16;;;;;;;7.13;3.20;;;;;;;;;;5056543;28;20036;-96
2023/09/21 16:33:41;;;;;;;9.18;3.70;;;;;;;;;;5056968;28;20033;-96
2023/09/21 16:36:07;;;;;;;7.40;3.40;;;;;;;;;;5057241;28;20166;-91
2023/09/21 16:38:33;;;;;;;6.93;3.65;;;;;;;;;;5054393;28;20039;-87
2023/09/21 16:40:59;;;;;;;7.00;3.50;;;;;;;;;;5054173;28;20025;-94
2023/09/21 16:43:25;;;;;;;8.93;4.25;;;;;;;;;;5055063;28;20025;-91
2023/09/21 16:45:51;;;;;;;8.50;3.80;;;;;;;;;;5053285;28;20044;-94
2023/09/21 16:48:17;;;;;;;8.60;4.15;;;;;;;;;;5054643;28;20108;-90
2023/09/21 16:50:45;;;;;;;6.65;3.72;;;;;;;;;;5053793;28;20052;-95
2023/09/21 16:53:11;;;;;;;5.68;3.60;;;;;;;;;;5053845;28;20021;-94
2023/09/21 16:55:37;;;;;;;4.90;3.28;;;;;;;;;;5058036;28;20348;-93
2023/09/21 16:58:05;;;;;;;6.70;3.47;;;;;;;;;;5058437;28;20531;-94
2023/09/21 17:00:31;;;;;;;5.00;3.30;;;;;;;;;;5059061;28;20029;-88
2023/09/21 17:02:57;;;;;;;8.50;3.17;;;;;;;;;;5058065;28;20032;-93
2023/09/21 17:05:23;;;;;;;5.82;3.25;;;;;;;;;;5057921;28;20053;-91
2023/09/21 17:07:52;;;;;;;8.93;3.85;;;;;;;;;;5057096;28;20025;-87
2023/09/21 17:10:18;;;;;;;10.43;3.72;;;;;;;;;;5056853;28;20025;-88
2023/09/21 17:12:45;;;;;;;9.05;3.92;;;;;;;;;;5056804;28;20031;-87
2023/09/21 17:15:14;;;;;;;10.32;4.55;;;;;;;;;;5056606;28;20028;-87
2023/09/21 17:17:42;;;;;;;6.85;3.85;;;;;;;;;;5056428;28;20021;-87
2023/09/21 17:20:08;;;;;;;6.22;4.60;;;;;;;;;;5056367;28;20068;-85
2023/09/21 17:22:34;;;;;;;10.35;5.03;;;;;;;;;;5056262;28;20025;-84
2023/09/21 17:24:59;;;;;;;10.07;4.10;;;;;;;;;;5056011;28;20021;-85
2023/09/21 17:27:25;;;;;;;12.77;6.30;;;;;;;;;;5056525;28;20032;-86
2023/09/21 17:29:50;;;;;;;5.70;3.90;;;;;;;;;;5056195;28;20082;-86
2023/09/21 17:32:16;;;;;;;5.13;3.83;;;;;;;;;;5056219;28;20029;-87
2023/09/21 17:34:41;;;;;;;8.13;4.07;;;;;;;;;;5054927;28;20052;-87
2023/09/21 17:37:08;;;;;;;3.78;3.30;;;;;;;;;;5056051;28;20017;-86
2023/09/21 17:39:34;;;;;;;5.57;3.78;;;;;;;;;;5056239;28;20383;-84
2023/09/21 17:42:00;;;;;;;7.00;4.60;;;;;;;;;;5055947;28;20017;-86
2023/09/21 17:44:31;;;;;;;6.70;4.35;;;;;;;;;;5055970;28;20021;-83
2023/09/21 17:46:57;;;;;;;4.40;3.80;;;;;;;;;;5054754;28;20025;-90
2023/09/21 17:49:23;;;;;;;5.60;3.85;;;;;;;;;;5056400;28;20502;-92
2023/09/21 17:51:49;;;;;;;9.10;5.53;;;;;;;;;;5054647;28;20029;-86
2023/09/21 17:54:14;;;;;;;9.65;5.03;;;;;;;;;;5056298;28;20106;-83
2023/09/21 17:56:40;;;;;;;6.45;3.90;;;;;;;;;;5054443;28;20443;-86
2023/09/21 17:59:05;;;;;;;7.22;4.45;;;;;;;;;;5055711;28;20429;-88
2023/09/21 18:01:32;;;;;;;9.35;4.50;;;;;;;;;;5055655;28;20418;-88
2023/09/21 18:03:58;;;;;;;6.72;4.10;;;;;;;;;;5055395;28;20122;-86
2023/09/21 18:06:23;;;;;;;5.72;3.97;;;;;;;;;;5054593;28;20025;-87
2023/09/21 18:08:49;;;;;;;6.85;4.60;;;;;;;;;;5056373;28;20103;-90
2023/09/21 18:11:16;;;;;;;9.45;5.25;;;;;;;;;;5056195;28;20143;-93
2023/09/21 18:13:41;;;;;;;9.13;6.40;;;;;;;;;;5056536;28;20319;-89
2023/09/21 18:16:07;;;;;;;8.80;5.85;;;;;;;;;;5055794;28;20027;-90
2023/09/21 18:18:37;;;;;;;8.43;5.40;;;;;;;;;;5056061;28;20028;-90
2023/09/21 18:21:04;;;;;;;11.18;5.22;;;;;;;;;;5056485;28;20082;-86
2023/09/21 18:23:29;;;;;;;7.40;4.20;;;;;;;;;;5058724;28;20024;-86
2023/09/21 18:25:55;;;;;;;9.15;4.65;;;;;;;;;;5055532;28;20108;-87
2023/09/21 18:28:20;;;;;;;6.05;4.43;;;;;;;;;;5055307;28;20068;-89
2023/09/21 18:30:47;;;;;;;7.38;4.05;;;;;;;;;;5055336;28;20065;-85
2023/09/21 18:33:14;;;;;;;9.45;4.53;;;;;;;;;;5055108;28;20121;-84
2023/09/21 18:35:40;;;;;;;7.88;4.38;;;;;;;;;;5055362;28;20028;-88
2023/09/21 18:38:06;;;;;;;6.63;4.55;;;;;;;;;;5055773;28;20028;-86
2023/09/21 18:40:32;;;;;;;9.07;5.15;;;;;;;;;;5054950;28;20086;-84
2023/09/21 18:42:58;;;;;;;7.93;4.55;;;;;;;;;;5054824;28;20033;-88
2023/09/21 18:45:24;;;;;;;5.72;4.10;;;;;;;;;;5055208;28;20111;-86
2023/09/21 18:47:49;;;;;;;8.27;4.28;;;;;;;;;;5055104;28;20114;-85
2023/09/21 18:50:16;;;;;;;8.15;3.80;;;;;;;;;;5054784;28;20082;-84
2023/09/21 18:52:42;;;;;;;5.80;3.95;;;;;;;;;;5053496;28;20024;-84
2023/09/21 18:55:08;;;;;;;6.95;3.63;;;;;;;;;;5054703;28;20051;-83
2023/09/21 18:57:34;;;;;;;4.32;3.30;;;;;;;;;;5053732;28;20021;-82
2023/09/21 19:00:00;;;;;;;5.75;3.50;;;;;;;;;;5054808;28;20060;-87
2023/09/21 19:02:25;;;;;;;5.88;3.60;;;;;;;;;;5054803;28;20128;-87
2023/09/21 19:04:53;;;;;;;4.72;3.50;;;;;;;;;;5053995;28;20136;-83
2023/09/21 19:07:19;;;;;;;6.75;3.60;;;;;;;;;;5055400;28;20118;-91
2023/09/21 19:09:45;;;;;;;5.90;3.85;;;;;;;;;;5054874;28;20116;-88
2023/09/21 19:12:10;;;;;;;6.38;4.18;;;;;;;;;;5055075;28;20029;-90
2023/09/21 19:14:36;;;;;;;7.82;3.38;;;;;;;;;;5055672;28;20028;-91
2023/09/21 19:17:02;;;;;;;7.38;3.45;;;;;;;;;;5053892;28;20434;-87
2023/09/21 19:19:28;;;;;;;7.18;3.35;;;;;;;;;;5055115;28;20048;-91
2023/09/21 19:21:54;;;;;;;3.63;2.90;;;;;;;;;;5054760;28;20017;-86
2023/09/21 19:24:19;;;;;;;7.00;3.25;;;;;;;;;;5054463;28;20039;-86
2023/09/21 19:26:45;;;;;;;4.95;3.25;;;;;;;;;;5054486;28;20472;-87
2023/09/21 19:29:12;;;;;;;5.28;3.42;;;;;;;;;;5054827;28;20112;-87
2023/09/21 19:31:38;;;;;;;4.65;3.33;;;;;;;;;;5052871;28;20047;-89
2023/09/21 19:34:03;;;;;;;6.30;2.88;;;;;;;;;;5054630;28;20519;-85
2023/09/21 19:36:29;;;;;;;5.55;3.13;;;;;;;;;;5052944;28;20021;-88
2023/09/21 19:38:54;;;;;;;4.95;3.17;;;;;;;;;;5053900;28;20095;-87
2023/09/21 19:41:20;;;;;;;5.22;2.78;;;;;;;;;;5052593;28;20037;-87
2023/09/21 19:43:46;;;;;;;3.00;2.45;;;;;;;;;;5053831;28;20361;-88
2023/09/21 19:46:12;;;;;;;4.82;2.85;;;;;;;;;;5053756;28;20108;-88
2023/09/21 19:48:38;;;;;;;5.03;2.13;;;;;;;;;;5052483;28;20464;-88
2023/09/21 19:51:05;;;;;;;4.55;2.97;;;;;;;;;;5052637;28;20025;-88
2023/09/21 19:53:31;;;;;;;7.50;3.42;;;;;;;;;;5052832;28;20496;-85
2023/09/21 19:55:56;;;;;;;5.10;3.45;;;;;;;;;;5054451;28;20040;-88
2023/09/21 19:58:22;;;;;;;5.65;3.40;;;;;;;;;;5053647;28;20071;-86
2023/09/21 20:00:48;;;;;;;5.07;2.88;;;;;;;;;;5053543;28;20374;-85
2023/09/21 20:03:16;;;;;;;3.42;2.80;;;;;;;;;;5053505;28;20441;-85
2023/09/21 20:05:43;;;;;;;3.17;2.65;;;;;;;;;;5070604;28;20056;-85
2023/09/21 20:08:09;;;;;;;3.63;2.83;;;;;;;;;;5055319;28;20039;-86
2023/09/21 20:10:35;;;;;;;5.45;2.90;;;;;;;;;;5055354;28;20410;-85
2023/09/21 20:13:03;;;;;;;4.43;2.60;;;;;;;;;;5073812;28;20029;-89
2023/09/21 20:15:28;;;;;;;3.17;2.88;;;;;;;;;;5057644;28;20027;-92
2023/09/21 20:17:53;;;;;;;5.50;3.10;;;;;;;;;;5055672;28;20020;-84
2023/09/21 20:20:19;;;;;;;5.40;3.17;;;;;;;;;;5073670;28;20024;-85
2023/09/21 20:22:44;;;;;;;3.72;2.78;;;;;;;;;;5055538;28;20462;-84
2023/09/21 20:25:10;;;;;;;3.92;2.42;;;;;;;;;;5073231;28;20077;-84
2023/09/21 20:27:36;;;;;;;3.67;2.88;;;;;;;;;;5074141;28;20025;-87
2023/09/21 20:30:02;;;;;;;5.93;2.88;;;;;;;;;;5059635;28;20028;-87
2023/09/21 20:32:27;;;;;;;4.35;2.60;;;;;;;;;;5077692;28;20021;-87
2023/09/21 20:34:53;;;;;;;5.10;2.85;;;;;;;;;;5059556;28;20024;-85
2023/09/21 20:37:20;;;;;;;5.30;3.20;;;;;;;;;;5077504;28;20544;-85
2023/09/21 20:39:47;;;;;;;3.30;2.78;;;;;;;;;;5077069;28;20028;-85
2023/09/21 20:42:13;;;;;;;3.42;2.53;;;;;;;;;;5077378;28;20016;-86
2023/09/21 20:44:40;;;;;;;3.47;2.75;;;;;;;;;;5076931;28;20043;-88
2023/09/21 20:47:06;;;;;;;4.72;3.03;;;;;;;;;;5077456;28;20374;-85
2023/09/21 20:49:32;;;;;;;3.88;2.80;;;;;;;;;;5059824;28;20028;-87
2023/09/21 20:51:58;;;;;;;5.85;3.20;;;;;;;;;;5077035;28;20021;-85
2023/09/21 20:54:23;;;;;;;5.63;3.63;;;;;;;;;;5077064;28;20031;-84
2023/09/21 20:56:50;;;;;;;3.92;3.53;;;;;;;;;;5059208;28;20115;-85
2023/09/21 20:59:15;;;;;;;9.43;3.83;;;;;;;;;;5059019;28;20029;-86
2023/09/21 21:01:41;;;;;;;5.53;3.30;;;;;;;;;;5076801;28;20113;-85
2023/09/21 21:04:06;;;;;;;5.43;3.65;;;;;;;;;;5059020;28;20041;-86
2023/09/21 21:06:32;;;;;;;4.13;3.08;;;;;;;;;;5076956;28;20059;-85
2023/09/21 21:08:57;;;;;;;6.95;3.13;;;;;;;;;;5058818;28;20021;-85
2023/09/21 21:11:23;;;;;;;4.82;3.10;;;;;;;;;;5058571;28;20025;-86
2023/09/21 21:13:49;;;;;;;2.90;2.60;;;;;;;;;;5076802;28;20183;-86
2023/09/21 21:16:14;;;;;;;8.43;3.00;;;;;;;;;;5076498;28;20077;-86
2023/09/21 21:18:40;;;;;;;5.05;2.85;;;;;;;;;;5058467;28;20174;-86
2023/09/21 21:21:05;;;;;;;6.47;2.88;;;;;;;;;;5058580;28;20028;-89
2023/09/21 21:23:32;;;;;;;3.47;2.85;;;;;;;;;;5059450;28;20028;-88
2023/09/21 21:25:58;;;;;;;4.32;2.90;;;;;;;;;;5059733;28;20556;-91
2023/09/21 21:28:23;;;;;;;6.15;2.83;;;;;;;;;;5059420;28;20017;-88
2023/09/21 21:30:49;;;;;;;3.95;2.47;;;;;;;;;;5042159;28;20051;-89
2023/09/21 21:33:15;;;;;;;3.45;2.55;;;;;;;;;;5076764;28;20047;-88
2023/09/21 21:35:40;;;;;;;4.05;2.85;;;;;;;;;;5058552;28;20511;-88
2023/09/21 21:38:06;;;;;;;2.97;2.50;;;;;;;;;;5076497;28;20428;-87
2023/09/21 21:40:32;;;;;;;6.05;3.30;;;;;;;;;;5075785;28;20029;-87
2023/09/21 21:42:57;;;;;;;4.38;2.78;;;;;;;;;;5076393;28;20100;-87
2023/09/21 21:45:23;;;;;;;3.13;2.75;;;;;;;;;;5076290;28;20489;-86
2023/09/21 21:47:49;;;;;;;5.00;3.85;;;;;;;;;;5076037;28;20074;-86
2023/09/21 21:50:14;;;;;;;5.47;3.40;;;;;;;;;;5058176;28;20039;-89
2023/09/21 21:52:40;;;;;;;3.95;3.03;;;;;;;;;;5075869;28;20020;-86
2023/09/21 21:55:06;;;;;;;5.80;2.80;;;;;;;;;;5058263;28;20043;-88
2023/09/21 21:57:31;;;;;;;3.92;3.30;;;;;;;;;;5076000;28;20468;-87
2023/09/21 21:59:57;;;;;;;3.45;3.15;;;;;;;;;;5058046;28;20490;-89
2023/09/21 22:02:22;;;;;;;8.00;2.90;;;;;;;;;;5075929;28;20039;-85
2023/09/21 22:04:50;;;;;;;3.20;2.90;;;;;;;;;;5054084;28;20044;-86
2023/09/21 22:07:16;;;;;;;4.82;3.00;;;;;;;;;;5054563;28;20021;-86
2023/09/21 22:09:41;;;;;;;3.30;3.00;;;;;;;;;;5054012;28;20025;-86
2023/09/21 22:12:11;;;;;;;4.88;3.10;;;;;;;;;;5054307;28;20498;-86
2023/09/21 22:14:37;;;;;;;4.13;3.33;;;;;;;;;;5055624;28;20021;-85
2023/09/21 22:17:02;;;;;;;4.55;2.97;;;;;;;;;;5055432;28;20563;-85
2023/09/21 22:19:28;;;;;;;5.07;3.85;;;;;;;;;;5054261;28;20111;-86
2023/09/21 22:21:55;;;;;;;3.08;2.72;;;;;;;;;;5053907;28;20375;-85
2023/09/21 22:24:20;;;;;;;4.07;2.95;;;;;;;;;;5054036;28;20032;-87
2023/09/21 22:26:46;;;;;;;3.10;2.78;;;;;;;;;;5054121;28;20024;-86
2023/09/21 22:29:11;;;;;;;7.18;2.75;;;;;;;;;;5055149;28;20065;-85
2023/09/21 22:31:38;;;;;;;4.45;2.53;;;;;;;;;;5055103;28;20070;-87
2023/09/21 22:34:03;;;;;;;3.47;3.17;;;;;;;;;;5053730;28;20067;-87
2023/09/21 22:36:29;;;;;;;3.67;2.90;;;;;;;;;;5055299;28;20134;-86
2023/09/21 22:38:55;;;;;;;5.05;2.35;;;;;;;;;;5055008;28;20021;-86
2023/09/21 22:41:21;;;;;;;4.78;2.75;;;;;;;;;;5053373;28;20037;-86
2023/09/21 22:43:47;;;;;;;3.65;3.20;;;;;;;;;;5053593;28;20028;-86
2023/09/21 22:46:14;;;;;;;4.78;2.42;;;;;;;;;;5053508;28;20375;-86
2023/09/21 22:48:43;;;;;;;3.03;2.50;;;;;;;;;;5053597;28;20063;-85
2023/09/21 22:51:08;;;;;;;5.35;2.70;;;;;;;;;;5052516;28;20033;-85
2023/09/21 22:53:35;;;;;;;4.72;2.60;;;;;;;;;;5054738;28;20372;-85
2023/09/21 22:56:01;;;;;;;4.28;2.83;;;;;;;;;;5053314;28;20037;-85
2023/09/21 22:58:28;;;;;;;4.03;2.80;;;;;;;;;;5054733;28;20487;-87
2023/09/21 23:00:57;;;;;;;3.88;2.85;;;;;;;;;;5053817;28;20032;-87
2023/09/21 23:03:24;;;;;;;5.68;3.35;;;;;;;;;;5054568;28;20132;-86
